sensor_id;sensor_type;location;lat;lon;timestamp;temperature;humidity
41816;DHT22;27814;53.452;-6.180;2022-09-17T00:01:37;13.30;96.70
41816;DHT22;27814;53.452;-6.180;2022-09-17T00:04:06;13.30;96.60
41816;DHT22;27814;53.452;-6.180;2022-09-17T00:06:36;13.20;97.00
41816;DHT22;27814;53.452;-6.180;2022-09-17T00:09:05;13.20;96.70
41816;DHT22;27814;53.452;-6.180;2022-09-17T00:11:36;13.20;96.80
41816;DHT22;27814;53.452;-6.180;2022-09-17T00:14:05;13.20;96.80
41816;DHT22;27814;53.452;-6.180;2022-09-17T00:16:38;13.20;96.90
41816;DHT22;27814;53.452;-6.180;2022-09-17T00:19:12;13.10;96.80
41816;DHT22;27814;53.452;-6.180;2022-09-17T00:21:42;13.20;96.90
41816;DHT22;27814;53.452;-6.180;2022-09-17T00:24:12;13.10;96.80
41816;DHT22;27814;53.452;-6.180;2022-09-17T00:26:41;13.10;96.90
41816;DHT22;27814;53.452;-6.180;2022-09-17T00:29:10;13.10;96.90
41816;DHT22;27814;53.452;-6.180;2022-09-17T00:31:38;13.00;97.00
41816;DHT22;27814;53.452;-6.180;2022-09-17T00:34:07;13.10;97.00
41816;DHT22;27814;53.452;-6.180;2022-09-17T00:36:37;13.10;97.10
41816;DHT22;27814;53.452;-6.180;2022-09-17T00:39:09;13.10;97.10
41816;DHT22;27814;53.452;-6.180;2022-09-17T00:41:38;13.10;97.10
41816;DHT22;27814;53.452;-6.180;2022-09-17T00:44:39;13.10;97.00
41816;DHT22;27814;53.452;-6.180;2022-09-17T00:47:13;13.20;97.00
41816;DHT22;27814;53.452;-6.180;2022-09-17T00:49:42;13.20;96.90
41816;DHT22;27814;53.452;-6.180;2022-09-17T00:52:13;13.10;96.90
41816;DHT22;27814;53.452;-6.180;2022-09-17T00:54:48;13.10;97.00
41816;DHT22;27814;53.452;-6.180;2022-09-17T00:57:17;13.10;97.00
41816;DHT22;27814;53.452;-6.180;2022-09-17T00:59:45;13.00;97.10
41816;DHT22;27814;53.452;-6.180;2022-09-17T01:02:14;13.00;97.10
41816;DHT22;27814;53.452;-6.180;2022-09-17T01:04:43;13.00;97.20
41816;DHT22;27814;53.452;-6.180;2022-09-17T01:07:21;13.00;97.20
41816;DHT22;27814;53.452;-6.180;2022-09-17T01:10:00;12.90;97.20
41816;DHT22;27814;53.452;-6.180;2022-09-17T01:12:46;12.90;97.30
41816;DHT22;27814;53.452;-6.180;2022-09-17T01:15:23;12.80;97.40
41816;DHT22;27814;53.452;-6.180;2022-09-17T01:18:09;12.80;97.50
41816;DHT22;27814;53.452;-6.180;2022-09-17T01:21:06;12.70;97.60
41816;DHT22;27814;53.452;-6.180;2022-09-17T01:27:33;12.60;97.90
41816;DHT22;27814;53.452;-6.180;2022-09-17T01:33:04;12.50;98.10
41816;DHT22;27814;53.452;-6.180;2022-09-17T01:35:39;12.50;98.20
41816;DHT22;27814;53.452;-6.180;2022-09-17T01:38:11;12.50;98.40
41816;DHT22;27814;53.452;-6.180;2022-09-17T01:40:46;12.50;98.50
41816;DHT22;27814;53.452;-6.180;2022-09-17T01:43:21;12.40;98.40
41816;DHT22;27814;53.452;-6.180;2022-09-17T01:45:54;12.40;98.40
41816;DHT22;27814;53.452;-6.180;2022-09-17T01:48:28;12.40;98.50
41816;DHT22;27814;53.452;-6.180;2022-09-17T01:51:03;12.40;98.60
41816;DHT22;27814;53.452;-6.180;2022-09-17T01:53:37;12.30;98.60
41816;DHT22;27814;53.452;-6.180;2022-09-17T01:56:09;12.30;98.70
41816;DHT22;27814;53.452;-6.180;2022-09-17T01:58:42;12.20;98.70
41816;DHT22;27814;53.452;-6.180;2022-09-17T02:01:15;12.30;98.80
41816;DHT22;27814;53.452;-6.180;2022-09-17T02:03:51;12.30;98.80
41816;DHT22;27814;53.452;-6.180;2022-09-17T02:06:24;12.30;98.80
41816;DHT22;27814;53.452;-6.180;2022-09-17T02:08:58;12.20;98.70
41816;DHT22;27814;53.452;-6.180;2022-09-17T02:11:30;12.20;98.80
41816;DHT22;27814;53.452;-6.180;2022-09-17T02:14:01;12.30;98.90
41816;DHT22;27814;53.452;-6.180;2022-09-17T02:16:33;12.20;98.90
41816;DHT22;27814;53.452;-6.180;2022-09-17T02:19:06;12.30;98.90
41816;DHT22;27814;53.452;-6.180;2022-09-17T02:21:39;12.30;99.00
41816;DHT22;27814;53.452;-6.180;2022-09-17T02:24:13;12.40;98.90
41816;DHT22;27814;53.452;-6.180;2022-09-17T02:26:50;12.40;98.90
41816;DHT22;27814;53.452;-6.180;2022-09-17T02:29:28;12.40;98.90
41816;DHT22;27814;53.452;-6.180;2022-09-17T02:31:59;12.40;98.90
41816;DHT22;27814;53.452;-6.180;2022-09-17T02:34:29;12.40;98.90
41816;DHT22;27814;53.452;-6.180;2022-09-17T02:36:57;12.40;98.90
41816;DHT22;27814;53.452;-6.180;2022-09-17T02:39:27;12.40;98.90
41816;DHT22;27814;53.452;-6.180;2022-09-17T02:42:04;12.40;98.80
41816;DHT22;27814;53.452;-6.180;2022-09-17T02:44:40;12.40;98.90
41816;DHT22;27814;53.452;-6.180;2022-09-17T02:47:35;12.40;98.80
41816;DHT22;27814;53.452;-6.180;2022-09-17T02:50:17;12.40;98.90
41816;DHT22;27814;53.452;-6.180;2022-09-17T02:52:59;12.30;98.90
41816;DHT22;27814;53.452;-6.180;2022-09-17T02:55:37;12.30;98.90
41816;DHT22;27814;53.452;-6.180;2022-09-17T02:58:16;12.30;99.00
41816;DHT22;27814;53.452;-6.180;2022-09-17T03:00:47;12.20;98.90
41816;DHT22;27814;53.452;-6.180;2022-09-17T03:03:20;12.20;98.90
41816;DHT22;27814;53.452;-6.180;2022-09-17T03:05:52;12.20;99.00
41816;DHT22;27814;53.452;-6.180;2022-09-17T03:08:27;12.10;99.20
41816;DHT22;27814;53.452;-6.180;2022-09-17T03:10:56;12.10;99.20
41816;DHT22;27814;53.452;-6.180;2022-09-17T03:13:24;12.10;99.20
41816;DHT22;27814;53.452;-6.180;2022-09-17T03:15:53;12.10;99.30
41816;DHT22;27814;53.452;-6.180;2022-09-17T03:18:21;12.00;99.40
41816;DHT22;27814;53.452;-6.180;2022-09-17T03:20:51;11.90;99.50
41816;DHT22;27814;53.452;-6.180;2022-09-17T03:23:19;11.90;99.60
41816;DHT22;27814;53.452;-6.180;2022-09-17T03:25:48;11.90;99.70
41816;DHT22;27814;53.452;-6.180;2022-09-17T03:28:16;11.90;99.80
41816;DHT22;27814;53.452;-6.180;2022-09-17T03:30:45;11.90;99.90
41816;DHT22;27814;53.452;-6.180;2022-09-17T03:33:13;11.90;99.90
41816;DHT22;27814;53.452;-6.180;2022-09-17T03:35:42;11.90;99.90
41816;DHT22;27814;53.452;-6.180;2022-09-17T03:38:12;11.90;99.80
41816;DHT22;27814;53.452;-6.180;2022-09-17T03:40:41;11.90;99.80
41816;DHT22;27814;53.452;-6.180;2022-09-17T03:43:09;11.80;99.90
41816;DHT22;27814;53.452;-6.180;2022-09-17T03:45:38;11.80;99.90
41816;DHT22;27814;53.452;-6.180;2022-09-17T03:48:06;11.80;99.90
41816;DHT22;27814;53.452;-6.180;2022-09-17T03:50:34;11.80;99.90
41816;DHT22;27814;53.452;-6.180;2022-09-17T03:53:03;11.80;99.90
41816;DHT22;27814;53.452;-6.180;2022-09-17T03:55:32;11.90;99.90
41816;DHT22;27814;53.452;-6.180;2022-09-17T03:58:00;11.90;99.90
41816;DHT22;27814;53.452;-6.180;2022-09-17T04:00:29;11.80;99.90
41816;DHT22;27814;53.452;-6.180;2022-09-17T04:02:58;11.80;99.90
41816;DHT22;27814;53.452;-6.180;2022-09-17T04:05:26;11.70;99.90
41816;DHT22;27814;53.452;-6.180;2022-09-17T04:07:54;11.80;99.90
41816;DHT22;27814;53.452;-6.180;2022-09-17T04:10:23;11.70;99.90
41816;DHT22;27814;53.452;-6.180;2022-09-17T04:12:53;11.80;99.90
41816;DHT22;27814;53.452;-6.180;2022-09-17T04:15:21;11.70;99.90
41816;DHT22;27814;53.452;-6.180;2022-09-17T04:17:49;11.80;99.90
41816;DHT22;27814;53.452;-6.180;2022-09-17T04:20:17;11.70;99.90
41816;DHT22;27814;53.452;-6.180;2022-09-17T04:22:46;11.70;99.90
41816;DHT22;27814;53.452;-6.180;2022-09-17T04:25:14;11.70;99.90
41816;DHT22;27814;53.452;-6.180;2022-09-17T04:27:43;11.70;99.90
41816;DHT22;27814;53.452;-6.180;2022-09-17T04:30:13;11.70;99.90
41816;DHT22;27814;53.452;-6.180;2022-09-17T04:32:42;11.70;99.90
41816;DHT22;27814;53.452;-6.180;2022-09-17T04:35:11;11.70;99.90
41816;DHT22;27814;53.452;-6.180;2022-09-17T04:37:40;11.70;99.90
41816;DHT22;27814;53.452;-6.180;2022-09-17T04:40:09;11.60;99.90
41816;DHT22;27814;53.452;-6.180;2022-09-17T04:42:37;11.60;99.90
41816;DHT22;27814;53.452;-6.180;2022-09-17T04:45:06;11.60;99.90
41816;DHT22;27814;53.452;-6.180;2022-09-17T04:47:39;11.60;99.90
41816;DHT22;27814;53.452;-6.180;2022-09-17T04:50:07;11.60;99.90
41816;DHT22;27814;53.452;-6.180;2022-09-17T04:52:36;11.60;99.90
41816;DHT22;27814;53.452;-6.180;2022-09-17T04:55:08;11.70;99.90
41816;DHT22;27814;53.452;-6.180;2022-09-17T04:57:37;11.70;99.90
41816;DHT22;27814;53.452;-6.180;2022-09-17T05:00:07;11.70;99.90
41816;DHT22;27814;53.452;-6.180;2022-09-17T05:02:36;11.70;99.90
41816;DHT22;27814;53.452;-6.180;2022-09-17T05:05:06;11.60;99.90
41816;DHT22;27814;53.452;-6.180;2022-09-17T05:07:37;11.70;99.90
41816;DHT22;27814;53.452;-6.180;2022-09-17T05:10:07;11.60;99.90
41816;DHT22;27814;53.452;-6.180;2022-09-17T05:12:36;11.60;99.90
41816;DHT22;27814;53.452;-6.180;2022-09-17T05:15:05;11.60;99.90
41816;DHT22;27814;53.452;-6.180;2022-09-17T05:17:33;11.60;99.90
41816;DHT22;27814;53.452;-6.180;2022-09-17T05:20:02;11.50;99.90
41816;DHT22;27814;53.452;-6.180;2022-09-17T05:22:32;11.50;99.90
41816;DHT22;27814;53.452;-6.180;2022-09-17T05:25:00;11.60;99.90
41816;DHT22;27814;53.452;-6.180;2022-09-17T05:27:28;11.60;99.90
41816;DHT22;27814;53.452;-6.180;2022-09-17T05:29:56;11.60;99.90
41816;DHT22;27814;53.452;-6.180;2022-09-17T05:32:25;11.60;99.90
41816;DHT22;27814;53.452;-6.180;2022-09-17T05:34:53;11.50;99.90
41816;DHT22;27814;53.452;-6.180;2022-09-17T05:37:22;11.60;99.90
41816;DHT22;27814;53.452;-6.180;2022-09-17T05:39:51;11.60;99.90
41816;DHT22;27814;53.452;-6.180;2022-09-17T05:42:20;11.50;99.90
41816;DHT22;27814;53.452;-6.180;2022-09-17T05:44:48;11.50;99.90
41816;DHT22;27814;53.452;-6.180;2022-09-17T05:47:16;11.50;99.90
41816;DHT22;27814;53.452;-6.180;2022-09-17T05:49:45;11.50;99.90
41816;DHT22;27814;53.452;-6.180;2022-09-17T05:52:13;11.50;99.90
41816;DHT22;27814;53.452;-6.180;2022-09-17T05:54:42;11.50;99.90
41816;DHT22;27814;53.452;-6.180;2022-09-17T05:57:12;11.50;99.90
41816;DHT22;27814;53.452;-6.180;2022-09-17T05:59:41;11.50;99.90
41816;DHT22;27814;53.452;-6.180;2022-09-17T06:02:12;11.40;99.90
41816;DHT22;27814;53.452;-6.180;2022-09-17T06:04:41;11.40;99.90
41816;DHT22;27814;53.452;-6.180;2022-09-17T06:07:09;11.40;99.90
41816;DHT22;27814;53.452;-6.180;2022-09-17T06:09:37;11.40;99.90
41816;DHT22;27814;53.452;-6.180;2022-09-17T06:12:07;11.40;99.90
41816;DHT22;27814;53.452;-6.180;2022-09-17T06:14:36;11.40;99.90
41816;DHT22;27814;53.452;-6.180;2022-09-17T06:17:05;11.40;99.90
41816;DHT22;27814;53.452;-6.180;2022-09-17T06:19:33;11.40;99.90
41816;DHT22;27814;53.452;-6.180;2022-09-17T06:22:01;11.40;99.90
41816;DHT22;27814;53.452;-6.180;2022-09-17T06:24:32;11.30;99.90
41816;DHT22;27814;53.452;-6.180;2022-09-17T06:27:00;11.40;99.90
41816;DHT22;27814;53.452;-6.180;2022-09-17T06:29:28;11.40;99.90
41816;DHT22;27814;53.452;-6.180;2022-09-17T06:31:58;11.40;99.90
41816;DHT22;27814;53.452;-6.180;2022-09-17T06:34:28;11.50;99.90
41816;DHT22;27814;53.452;-6.180;2022-09-17T06:36:57;11.50;99.90
41816;DHT22;27814;53.452;-6.180;2022-09-17T06:39:25;11.50;99.90
41816;DHT22;27814;53.452;-6.180;2022-09-17T06:41:54;11.50;99.90
41816;DHT22;27814;53.452;-6.180;2022-09-17T06:44:22;11.50;99.90
41816;DHT22;27814;53.452;-6.180;2022-09-17T06:46:50;11.50;99.90
41816;DHT22;27814;53.452;-6.180;2022-09-17T06:49:20;11.50;99.90
41816;DHT22;27814;53.452;-6.180;2022-09-17T06:51:48;11.50;99.90
41816;DHT22;27814;53.452;-6.180;2022-09-17T06:54:17;11.60;99.90
41816;DHT22;27814;53.452;-6.180;2022-09-17T06:56:46;11.60;99.90
41816;DHT22;27814;53.452;-6.180;2022-09-17T06:59:14;11.60;99.90
41816;DHT22;27814;53.452;-6.180;2022-09-17T07:01:42;11.60;99.90
41816;DHT22;27814;53.452;-6.180;2022-09-17T07:04:11;11.60;99.90
41816;DHT22;27814;53.452;-6.180;2022-09-17T07:06:42;11.50;99.90
41816;DHT22;27814;53.452;-6.180;2022-09-17T07:09:10;11.50;99.90
41816;DHT22;27814;53.452;-6.180;2022-09-17T07:11:39;11.60;99.90
41816;DHT22;27814;53.452;-6.180;2022-09-17T07:14:07;11.60;99.90
41816;DHT22;27814;53.452;-6.180;2022-09-17T07:16:36;11.60;99.90
41816;DHT22;27814;53.452;-6.180;2022-09-17T07:19:04;11.60;99.90
41816;DHT22;27814;53.452;-6.180;2022-09-17T07:21:34;11.60;99.90
41816;DHT22;27814;53.452;-6.180;2022-09-17T07:24:05;11.70;99.90
41816;DHT22;27814;53.452;-6.180;2022-09-17T07:26:33;11.70;99.90
41816;DHT22;27814;53.452;-6.180;2022-09-17T07:29:01;11.80;99.90
41816;DHT22;27814;53.452;-6.180;2022-09-17T07:31:30;11.90;99.90
41816;DHT22;27814;53.452;-6.180;2022-09-17T07:33:58;12.00;99.90
41816;DHT22;27814;53.452;-6.180;2022-09-17T07:36:27;12.10;99.90
41816;DHT22;27814;53.452;-6.180;2022-09-17T07:38:55;12.10;99.90
41816;DHT22;27814;53.452;-6.180;2022-09-17T07:41:25;12.10;99.90
41816;DHT22;27814;53.452;-6.180;2022-09-17T07:43:53;12.20;99.90
41816;DHT22;27814;53.452;-6.180;2022-09-17T07:46:22;12.20;99.90
41816;DHT22;27814;53.452;-6.180;2022-09-17T07:48:50;12.20;99.90
41816;DHT22;27814;53.452;-6.180;2022-09-17T07:51:20;12.20;99.90
41816;DHT22;27814;53.452;-6.180;2022-09-17T07:53:51;12.20;99.90
41816;DHT22;27814;53.452;-6.180;2022-09-17T07:56:19;12.20;99.90
41816;DHT22;27814;53.452;-6.180;2022-09-17T07:58:49;12.20;99.90
41816;DHT22;27814;53.452;-6.180;2022-09-17T08:01:18;12.20;99.90
41816;DHT22;27814;53.452;-6.180;2022-09-17T08:03:48;12.20;99.90
41816;DHT22;27814;53.452;-6.180;2022-09-17T08:06:18;12.20;99.90
41816;DHT22;27814;53.452;-6.180;2022-09-17T08:08:47;12.30;99.90
41816;DHT22;27814;53.452;-6.180;2022-09-17T08:11:17;12.40;99.90
41816;DHT22;27814;53.452;-6.180;2022-09-17T08:14:09;12.40;99.90
41816;DHT22;27814;53.452;-6.180;2022-09-17T08:16:38;12.50;99.90
41816;DHT22;27814;53.452;-6.180;2022-09-17T08:19:07;12.50;99.90
41816;DHT22;27814;53.452;-6.180;2022-09-17T08:21:37;12.50;99.90
41816;DHT22;27814;53.452;-6.180;2022-09-17T08:24:05;12.60;99.90
41816;DHT22;27814;53.452;-6.180;2022-09-17T08:26:34;12.60;99.90
41816;DHT22;27814;53.452;-6.180;2022-09-17T08:29:02;12.60;99.90
41816;DHT22;27814;53.452;-6.180;2022-09-17T08:31:32;12.60;99.90
41816;DHT22;27814;53.452;-6.180;2022-09-17T08:34:01;12.60;99.90
41816;DHT22;27814;53.452;-6.180;2022-09-17T08:36:29;12.70;99.90
41816;DHT22;27814;53.452;-6.180;2022-09-17T08:38:57;12.70;99.90
41816;DHT22;27814;53.452;-6.180;2022-09-17T08:41:37;12.80;99.90
41816;DHT22;27814;53.452;-6.180;2022-09-17T08:44:15;12.80;99.90
41816;DHT22;27814;53.452;-6.180;2022-09-17T08:46:49;12.90;99.90
41816;DHT22;27814;53.452;-6.180;2022-09-17T08:49:26;12.90;99.90
41816;DHT22;27814;53.452;-6.180;2022-09-17T08:52:23;13.00;99.90
41816;DHT22;27814;53.452;-6.180;2022-09-17T08:55:01;13.00;99.90
41816;DHT22;27814;53.452;-6.180;2022-09-17T08:57:37;13.10;99.90
41816;DHT22;27814;53.452;-6.180;2022-09-17T09:00:11;13.10;99.90
41816;DHT22;27814;53.452;-6.180;2022-09-17T09:03:03;13.20;99.90
41816;DHT22;27814;53.452;-6.180;2022-09-17T09:05:41;13.20;99.90
41816;DHT22;27814;53.452;-6.180;2022-09-17T09:08:13;13.30;99.90
41816;DHT22;27814;53.452;-6.180;2022-09-17T09:10:46;13.30;99.90
41816;DHT22;27814;53.452;-6.180;2022-09-17T09:13:19;13.40;99.90
41816;DHT22;27814;53.452;-6.180;2022-09-17T09:15:51;13.40;99.90
41816;DHT22;27814;53.452;-6.180;2022-09-17T09:18:26;13.40;99.90
41816;DHT22;27814;53.452;-6.180;2022-09-17T09:21:07;13.50;99.90
41816;DHT22;27814;53.452;-6.180;2022-09-17T09:23:47;13.50;99.90
41816;DHT22;27814;53.452;-6.180;2022-09-17T09:26:18;13.50;99.90
41816;DHT22;27814;53.452;-6.180;2022-09-17T09:29:04;13.60;99.90
41816;DHT22;27814;53.452;-6.180;2022-09-17T09:31:50;13.60;99.90
41816;DHT22;27814;53.452;-6.180;2022-09-17T09:34:25;13.70;99.90
41816;DHT22;27814;53.452;-6.180;2022-09-17T09:36:59;13.90;99.90
41816;DHT22;27814;53.452;-6.180;2022-09-17T09:39:31;13.80;99.90
41816;DHT22;27814;53.452;-6.180;2022-09-17T09:42:15;13.90;99.90
41816;DHT22;27814;53.452;-6.180;2022-09-17T09:44:46;13.90;99.60
41816;DHT22;27814;53.452;-6.180;2022-09-17T09:47:28;14.00;99.40
41816;DHT22;27814;53.452;-6.180;2022-09-17T09:50:25;14.10;98.70
41816;DHT22;27814;53.452;-6.180;2022-09-17T09:53:23;14.10;98.30
41816;DHT22;27814;53.452;-6.180;2022-09-17T09:56:18;14.20;97.60
41816;DHT22;27814;53.452;-6.180;2022-09-17T09:58:50;14.20;97.00
41816;DHT22;27814;53.452;-6.180;2022-09-17T10:01:19;14.30;96.90
41816;DHT22;27814;53.452;-6.180;2022-09-17T10:03:49;14.40;96.70
41816;DHT22;27814;53.452;-6.180;2022-09-17T10:06:21;14.40;96.50
41816;DHT22;27814;53.452;-6.180;2022-09-17T10:09:09;14.40;96.30
41816;DHT22;27814;53.452;-6.180;2022-09-17T10:11:38;14.50;96.10
41816;DHT22;27814;53.452;-6.180;2022-09-17T10:14:18;14.50;96.00
41816;DHT22;27814;53.452;-6.180;2022-09-17T10:16:48;14.60;95.90
41816;DHT22;27814;53.452;-6.180;2022-09-17T10:19:19;14.70;95.80
41816;DHT22;27814;53.452;-6.180;2022-09-17T10:21:53;14.80;95.60
41816;DHT22;27814;53.452;-6.180;2022-09-17T10:24:24;14.90;95.40
41816;DHT22;27814;53.452;-6.180;2022-09-17T10:27:00;15.00;95.20
41816;DHT22;27814;53.452;-6.180;2022-09-17T10:29:29;15.10;95.00
41816;DHT22;27814;53.452;-6.180;2022-09-17T10:31:58;15.20;94.60
41816;DHT22;27814;53.452;-6.180;2022-09-17T10:34:27;15.20;94.70
41816;DHT22;27814;53.452;-6.180;2022-09-17T10:36:57;15.30;94.60
41816;DHT22;27814;53.452;-6.180;2022-09-17T10:39:31;15.40;94.40
41816;DHT22;27814;53.452;-6.180;2022-09-17T10:42:01;15.50;94.60
41816;DHT22;27814;53.452;-6.180;2022-09-17T10:44:31;15.60;94.50
41816;DHT22;27814;53.452;-6.180;2022-09-17T10:47:12;15.60;94.00
41816;DHT22;27814;53.452;-6.180;2022-09-17T10:49:42;15.60;94.30
41816;DHT22;27814;53.452;-6.180;2022-09-17T10:52:23;15.60;94.50
41816;DHT22;27814;53.452;-6.180;2022-09-17T10:58:02;15.70;93.80
41816;DHT22;27814;53.452;-6.180;2022-09-17T11:00:41;15.60;93.30
41816;DHT22;27814;53.452;-6.180;2022-09-17T11:06:24;15.60;93.50
41816;DHT22;27814;53.452;-6.180;2022-09-17T11:09:04;15.70;93.30
41816;DHT22;27814;53.452;-6.180;2022-09-17T11:11:44;15.90;92.90
41816;DHT22;27814;53.452;-6.180;2022-09-17T11:14:42;16.00;92.60
41816;DHT22;27814;53.452;-6.180;2022-09-17T11:17:23;16.00;92.40
41816;DHT22;27814;53.452;-6.180;2022-09-17T11:19:58;16.00;92.30
41816;DHT22;27814;53.452;-6.180;2022-09-17T11:22:33;15.90;92.30
41816;DHT22;27814;53.452;-6.180;2022-09-17T11:25:29;16.00;92.30
41816;DHT22;27814;53.452;-6.180;2022-09-17T11:28:14;16.10;92.40
41816;DHT22;27814;53.452;-6.180;2022-09-17T11:30:55;16.20;92.20
41816;DHT22;27814;53.452;-6.180;2022-09-17T11:36:47;16.30;91.90
41816;DHT22;27814;53.452;-6.180;2022-09-17T11:39:21;16.30;91.60
41816;DHT22;27814;53.452;-6.180;2022-09-17T11:41:54;16.30;91.60
41816;DHT22;27814;53.452;-6.180;2022-09-17T11:44:27;16.30;91.60
41816;DHT22;27814;53.452;-6.180;2022-09-17T11:47:01;16.20;91.50
41816;DHT22;27814;53.452;-6.180;2022-09-17T11:49:40;16.30;91.50
41816;DHT22;27814;53.452;-6.180;2022-09-17T11:52:14;16.40;91.40
41816;DHT22;27814;53.452;-6.180;2022-09-17T11:54:50;16.50;91.20
41816;DHT22;27814;53.452;-6.180;2022-09-17T11:57:25;16.60;91.10
41816;DHT22;27814;53.452;-6.180;2022-09-17T11:59:58;16.70;91.10
41816;DHT22;27814;53.452;-6.180;2022-09-17T12:02:41;16.70;90.90
41816;DHT22;27814;53.452;-6.180;2022-09-17T12:05:16;16.70;91.10
41816;DHT22;27814;53.452;-6.180;2022-09-17T12:07:51;16.70;91.20
41816;DHT22;27814;53.452;-6.180;2022-09-17T12:10:34;16.80;90.90
41816;DHT22;27814;53.452;-6.180;2022-09-17T12:13:15;16.80;90.80
41816;DHT22;27814;53.452;-6.180;2022-09-17T12:15:48;16.80;90.70
41816;DHT22;27814;53.452;-6.180;2022-09-17T12:18:31;16.90;90.30
41816;DHT22;27814;53.452;-6.180;2022-09-17T12:21:05;16.80;90.20
41816;DHT22;27814;53.452;-6.180;2022-09-17T12:23:39;16.70;90.40
41816;DHT22;27814;53.452;-6.180;2022-09-17T12:26:18;16.60;90.30
41816;DHT22;27814;53.452;-6.180;2022-09-17T12:28:58;16.50;90.10
41816;DHT22;27814;53.452;-6.180;2022-09-17T12:31:34;16.40;90.30
41816;DHT22;27814;53.452;-6.180;2022-09-17T12:34:19;16.40;90.70
41816;DHT22;27814;53.452;-6.180;2022-09-17T12:36:54;16.40;90.70
41816;DHT22;27814;53.452;-6.180;2022-09-17T12:39:44;16.50;90.40
41816;DHT22;27814;53.452;-6.180;2022-09-17T12:42:28;16.70;90.40
41816;DHT22;27814;53.452;-6.180;2022-09-17T12:45:13;16.80;90.20
41816;DHT22;27814;53.452;-6.180;2022-09-17T12:48:01;17.10;90.50
41816;DHT22;27814;53.452;-6.180;2022-09-17T12:50:45;17.30;90.40
41816;DHT22;27814;53.452;-6.180;2022-09-17T12:53:25;17.50;90.20
41816;DHT22;27814;53.452;-6.180;2022-09-17T12:56:02;17.50;90.00
41816;DHT22;27814;53.452;-6.180;2022-09-17T12:59:02;17.50;90.00
41816;DHT22;27814;53.452;-6.180;2022-09-17T13:01:36;17.50;90.10
41816;DHT22;27814;53.452;-6.180;2022-09-17T13:04:24;17.50;90.20
41816;DHT22;27814;53.452;-6.180;2022-09-17T13:07:47;17.50;90.20
41816;DHT22;27814;53.452;-6.180;2022-09-17T13:13:28;17.70;88.80
41816;DHT22;27814;53.452;-6.180;2022-09-17T13:16:06;17.70;88.10
41816;DHT22;27814;53.452;-6.180;2022-09-17T13:18:50;17.60;88.10
41816;DHT22;27814;53.452;-6.180;2022-09-17T13:21:47;17.50;88.40
41816;DHT22;27814;53.452;-6.180;2022-09-17T13:24:20;17.40;88.40
41816;DHT22;27814;53.452;-6.180;2022-09-17T13:26:51;17.50;88.20
41816;DHT22;27814;53.452;-6.180;2022-09-17T13:29:58;17.50;88.40
41816;DHT22;27814;53.452;-6.180;2022-09-17T13:32:57;17.50;87.90
41816;DHT22;27814;53.452;-6.180;2022-09-17T13:35:50;17.50;88.00
41816;DHT22;27814;53.452;-6.180;2022-09-17T13:38:20;17.40;87.70
41816;DHT22;27814;53.452;-6.180;2022-09-17T13:40:51;17.40;87.90
41816;DHT22;27814;53.452;-6.180;2022-09-17T13:43:22;17.50;87.70
41816;DHT22;27814;53.452;-6.180;2022-09-17T13:46:15;17.60;87.30
41816;DHT22;27814;53.452;-6.180;2022-09-17T13:48:57;17.60;87.00
41816;DHT22;27814;53.452;-6.180;2022-09-17T13:51:48;17.70;86.60
41816;DHT22;27814;53.452;-6.180;2022-09-17T13:54:20;17.80;86.20
41816;DHT22;27814;53.452;-6.180;2022-09-17T13:57:11;18.00;85.70
41816;DHT22;27814;53.452;-6.180;2022-09-17T13:59:52;18.00;85.60
41816;DHT22;27814;53.452;-6.180;2022-09-17T14:02:35;18.10;85.50
41816;DHT22;27814;53.452;-6.180;2022-09-17T14:05:30;18.20;85.30
41816;DHT22;27814;53.452;-6.180;2022-09-17T14:08:22;18.30;85.80
41816;DHT22;27814;53.452;-6.180;2022-09-17T14:10:55;18.50;86.40
41816;DHT22;27814;53.452;-6.180;2022-09-17T14:13:27;18.50;85.80
41816;DHT22;27814;53.452;-6.180;2022-09-17T14:16:00;18.40;85.90
41816;DHT22;27814;53.452;-6.180;2022-09-17T14:21:24;18.20;86.10
41816;DHT22;27814;53.452;-6.180;2022-09-17T14:23:57;18.00;86.40
41816;DHT22;27814;53.452;-6.180;2022-09-17T14:29:37;17.80;86.90
41816;DHT22;27814;53.452;-6.180;2022-09-17T14:32:14;17.70;86.40
41816;DHT22;27814;53.452;-6.180;2022-09-17T14:34:43;17.70;86.90
41816;DHT22;27814;53.452;-6.180;2022-09-17T14:37:14;17.60;86.70
41816;DHT22;27814;53.452;-6.180;2022-09-17T14:39:45;17.70;87.10
41816;DHT22;27814;53.452;-6.180;2022-09-17T14:42:18;17.80;87.30
41816;DHT22;27814;53.452;-6.180;2022-09-17T14:44:53;17.80;86.50
41816;DHT22;27814;53.452;-6.180;2022-09-17T14:47:24;17.80;86.00
41816;DHT22;27814;53.452;-6.180;2022-09-17T14:49:53;17.80;85.70
41816;DHT22;27814;53.452;-6.180;2022-09-17T14:52:29;17.70;84.80
41816;DHT22;27814;53.452;-6.180;2022-09-17T14:55:25;17.60;85.00
41816;DHT22;27814;53.452;-6.180;2022-09-17T14:57:57;17.50;85.20
41816;DHT22;27814;53.452;-6.180;2022-09-17T15:00:32;17.50;85.40
41816;DHT22;27814;53.452;-6.180;2022-09-17T15:03:02;17.40;85.90
41816;DHT22;27814;53.452;-6.180;2022-09-17T15:05:32;17.30;85.10
41816;DHT22;27814;53.452;-6.180;2022-09-17T15:08:14;17.30;86.00
41816;DHT22;27814;53.452;-6.180;2022-09-17T15:10:49;17.30;86.40
41816;DHT22;27814;53.452;-6.180;2022-09-17T15:13:22;17.40;86.40
41816;DHT22;27814;53.452;-6.180;2022-09-17T15:15:56;17.40;86.50
41816;DHT22;27814;53.452;-6.180;2022-09-17T15:18:32;17.50;87.20
41816;DHT22;27814;53.452;-6.180;2022-09-17T15:21:05;17.50;87.60
41816;DHT22;27814;53.452;-6.180;2022-09-17T15:23:39;17.60;87.60
41816;DHT22;27814;53.452;-6.180;2022-09-17T15:26:10;17.60;87.30
41816;DHT22;27814;53.452;-6.180;2022-09-17T15:28:41;17.60;87.50
41816;DHT22;27814;53.452;-6.180;2022-09-17T15:31:16;17.60;87.60
41816;DHT22;27814;53.452;-6.180;2022-09-17T15:33:45;17.60;87.50
41816;DHT22;27814;53.452;-6.180;2022-09-17T15:36:19;17.70;87.80
41816;DHT22;27814;53.452;-6.180;2022-09-17T15:38:49;17.70;87.40
41816;DHT22;27814;53.452;-6.180;2022-09-17T15:41:28;17.70;87.40
41816;DHT22;27814;53.452;-6.180;2022-09-17T15:44:11;17.70;87.60
41816;DHT22;27814;53.452;-6.180;2022-09-17T15:47:34;17.70;87.40
41816;DHT22;27814;53.452;-6.180;2022-09-17T15:50:14;17.80;87.30
41816;DHT22;27814;53.452;-6.180;2022-09-17T15:52:42;17.80;87.40
41816;DHT22;27814;53.452;-6.180;2022-09-17T15:55:32;17.70;87.60
41816;DHT22;27814;53.452;-6.180;2022-09-17T15:58:05;17.70;87.90
41816;DHT22;27814;53.452;-6.180;2022-09-17T16:00:45;17.60;87.10
41816;DHT22;27814;53.452;-6.180;2022-09-17T16:04:05;17.50;87.00
41816;DHT22;27814;53.452;-6.180;2022-09-17T16:06:37;17.40;87.10
41816;DHT22;27814;53.452;-6.180;2022-09-17T16:12:10;17.30;87.70
41816;DHT22;27814;53.452;-6.180;2022-09-17T16:14:47;17.20;87.90
41816;DHT22;27814;53.452;-6.180;2022-09-17T16:17:28;17.20;88.30
41816;DHT22;27814;53.452;-6.180;2022-09-17T16:20:04;17.20;88.30
41816;DHT22;27814;53.452;-6.180;2022-09-17T16:22:33;17.30;88.50
41816;DHT22;27814;53.452;-6.180;2022-09-17T16:25:02;17.30;88.00
41816;DHT22;27814;53.452;-6.180;2022-09-17T16:27:34;17.30;88.00